createdAt,value
2023-05-01T00:00:32.033Z,23.63
2023-05-01T00:01:32.003Z,23.65
2023-05-01T00:02:32.070Z,23.63
2023-05-01T00:03:32.101Z,23.65
2023-05-01T00:04:31.994Z,23.62
2023-05-01T00:05:31.966Z,23.65
2023-05-01T00:06:32.019Z,23.62
2023-05-01T00:07:31.956Z,23.63
2023-05-01T00:08:31.928Z,23.65
2023-05-01T00:09:31.911Z,23.65
2023-05-01T00:10:31.892Z,23.62
2023-05-01T00:11:31.880Z,23.62
2023-05-01T00:12:31.886Z,23.65
2023-05-01T00:13:31.866Z,23.65
2023-05-01T00:14:31.833Z,23.63
2023-05-01T00:15:31.816Z,23.60
2023-05-01T00:16:31.836Z,23.63
2023-05-01T00:17:31.805Z,23.65
2023-05-01T00:18:31.764Z,23.63
2023-05-01T00:19:31.758Z,23.63
2023-05-01T00:20:31.740Z,23.66
2023-05-01T00:21:31.727Z,23.63
2023-05-01T00:22:31.718Z,23.62
2023-05-01T00:23:31.699Z,23.62
2023-05-01T00:24:31.691Z,23.63
2023-05-01T00:25:31.674Z,23.63
2023-05-01T00:26:31.687Z,23.63
2023-05-01T00:27:31.647Z,23.62
2023-05-01T00:28:31.635Z,23.66
2023-05-01T00:29:31.610Z,23.62
2023-05-01T00:30:31.600Z,23.63
2023-05-01T00:31:31.713Z,23.63
2023-05-01T00:32:31.589Z,23.65
2023-05-01T00:33:31.554Z,23.63
2023-05-01T00:34:31.541Z,23.63
2023-05-01T00:35:31.524Z,23.63
2023-05-01T00:36:31.504Z,23.65
2023-05-01T00:37:31.494Z,23.62
2023-05-01T00:38:31.479Z,23.62
2023-05-01T00:39:31.468Z,23.63
2023-05-01T00:40:31.457Z,23.60
2023-05-01T00:41:31.440Z,23.60
2023-05-01T00:42:31.433Z,23.63
2023-05-01T00:43:31.416Z,23.63
2023-05-01T00:44:31.404Z,23.62
2023-05-01T00:45:31.442Z,23.62
2023-05-01T00:46:31.480Z,23.62
2023-05-01T00:47:31.474Z,23.63
2023-05-01T00:48:31.426Z,23.62
2023-05-01T00:49:31.333Z,23.63
2023-05-01T00:50:31.317Z,23.62
2023-05-01T00:51:31.312Z,23.60
2023-05-01T00:52:31.288Z,23.60
2023-05-01T00:53:31.266Z,23.62
2023-05-01T00:54:31.250Z,23.63
2023-05-01T00:55:31.234Z,23.60
2023-05-01T00:56:31.236Z,23.62
2023-05-01T00:57:31.238Z,23.62
2023-05-01T00:58:31.210Z,23.60
2023-05-01T00:59:31.197Z,23.63
2023-05-01T01:00:31.196Z,23.63
2023-05-01T01:01:31.218Z,23.62
2023-05-01T01:02:31.201Z,23.62
2023-05-01T01:03:31.153Z,23.63
2023-05-01T01:04:31.386Z,23.65
2023-05-01T01:05:31.144Z,23.62
2023-05-01T01:06:31.201Z,23.63
2023-05-01T01:07:31.118Z,23.62
2023-05-01T01:08:32.650Z,23.62
2023-05-01T01:09:31.088Z,23.62
2023-05-01T01:10:31.062Z,23.62
2023-05-01T01:11:31.057Z,23.60
2023-05-01T01:12:31.081Z,23.59
2023-05-01T01:13:31.038Z,23.60
2023-05-01T01:14:31.018Z,23.62
2023-05-01T01:15:31.014Z,23.59
2023-05-01T01:16:31.041Z,23.63
2023-05-01T01:17:31.013Z,23.62
2023-05-01T01:18:31.008Z,23.62
2023-05-01T01:19:30.955Z,23.62
2023-05-01T01:20:30.936Z,23.62
2023-05-01T01:21:30.913Z,23.62
2023-05-01T01:22:30.889Z,23.60
2023-05-01T01:23:30.888Z,23.60
2023-05-01T01:24:30.873Z,23.63
2023-05-01T01:25:30.866Z,23.62
2023-05-01T01:26:30.963Z,23.62
2023-05-01T01:27:30.825Z,23.62
2023-05-01T01:28:30.829Z,23.63
2023-05-01T01:29:30.804Z,23.60
2023-05-01T01:30:30.797Z,23.62
2023-05-01T01:31:30.851Z,23.63
2023-05-01T01:32:30.815Z,23.62
2023-05-01T01:33:30.741Z,23.60
2023-05-01T01:34:30.724Z,23.60
2023-05-01T01:35:30.713Z,23.62
2023-05-01T01:36:30.705Z,23.62
2023-05-01T01:37:30.688Z,23.62
2023-05-01T01:38:30.673Z,23.59
2023-05-01T01:39:30.661Z,23.62
2023-05-01T01:40:30.662Z,23.59
2023-05-01T01:41:30.617Z,23.65
2023-05-01T01:42:30.616Z,23.62
2023-05-01T01:43:30.600Z,23.62
2023-05-01T01:44:30.615Z,23.62
2023-05-01T01:45:30.578Z,23.59
2023-05-01T01:46:30.605Z,23.60
2023-05-01T01:47:30.558Z,23.58
2023-05-01T01:48:30.534Z,23.60
2023-05-01T01:49:30.497Z,23.62
2023-05-01T01:50:30.493Z,23.59
2023-05-01T01:51:30.479Z,23.62
2023-05-01T01:52:30.454Z,23.63
2023-05-01T01:53:30.437Z,23.60
2023-05-01T01:54:30.437Z,23.60
2023-05-01T01:55:30.426Z,23.62
2023-05-01T01:56:30.406Z,23.62
2023-05-01T01:57:30.386Z,23.60
2023-05-01T01:58:30.367Z,23.60
2023-05-01T01:59:30.354Z,23.62
2023-05-01T02:00:30.347Z,23.60
2023-05-01T02:01:30.380Z,23.60
2023-05-01T02:02:30.421Z,23.60
2023-05-01T02:03:30.369Z,23.60
2023-05-01T02:04:30.300Z,23.60
2023-05-01T02:05:30.304Z,23.59
2023-05-01T02:06:30.371Z,23.60
2023-05-01T02:07:30.377Z,23.60
2023-05-01T02:08:30.233Z,23.59
2023-05-01T02:09:30.236Z,23.62
2023-05-01T02:10:30.231Z,23.60
2023-05-01T02:11:30.199Z,23.59
2023-05-01T02:12:30.184Z,23.58
2023-05-01T02:13:30.178Z,23.60
2023-05-01T02:14:30.166Z,23.59
2023-05-01T02:15:30.152Z,23.60
2023-05-01T02:16:30.187Z,23.59
2023-05-01T02:17:30.190Z,23.59
2023-05-01T02:18:30.098Z,23.58
2023-05-01T02:19:30.084Z,23.60
2023-05-01T02:20:30.076Z,23.60
2023-05-01T02:21:30.056Z,23.62
2023-05-01T02:22:30.039Z,23.60
2023-05-01T02:23:30.032Z,23.60
2023-05-01T02:24:30.020Z,23.60
2023-05-01T02:25:30.013Z,23.60
2023-05-01T02:26:30.000Z,23.59
2023-05-01T02:27:29.988Z,23.59
2023-05-01T02:28:29.978Z,23.60
2023-05-01T02:29:29.959Z,23.60
2023-05-01T02:30:29.945Z,23.59
2023-05-01T02:31:29.996Z,23.60
2023-05-01T02:32:29.939Z,23.62
2023-05-01T02:33:29.916Z,23.62
2023-05-01T02:34:29.892Z,23.60
2023-05-01T02:35:29.866Z,23.59
2023-05-01T02:36:29.867Z,23.62
2023-05-01T02:37:29.848Z,23.60
2023-05-01T02:38:29.842Z,23.58
2023-05-01T02:39:29.831Z,23.59
2023-05-01T02:40:29.813Z,23.59
2023-05-01T02:41:29.814Z,23.59
2023-05-01T02:42:29.810Z,23.56
2023-05-01T02:43:29.793Z,23.60
2023-05-01T02:44:29.782Z,23.62
2023-05-01T02:45:29.820Z,23.62
2023-05-01T02:46:29.796Z,23.60
2023-05-01T02:47:29.800Z,23.60
2023-05-01T02:48:29.726Z,23.59
2023-05-01T02:49:29.716Z,23.60
2023-05-01T02:50:29.707Z,23.59
2023-05-01T02:51:29.685Z,23.59
2023-05-01T02:52:29.669Z,23.60
2023-05-01T02:53:29.652Z,23.60
2023-05-01T02:54:29.641Z,23.59
2023-05-01T02:55:29.626Z,23.59
2023-05-01T02:56:29.620Z,23.60
2023-05-01T02:57:29.604Z,23.60
2023-05-01T02:58:29.583Z,23.59
2023-05-01T02:59:29.566Z,23.59
2023-05-01T03:00:29.556Z,23.60
2023-05-01T03:01:29.588Z,23.60
2023-05-01T03:02:29.519Z,23.59
2023-05-01T03:03:29.497Z,23.60
2023-05-01T03:04:29.567Z,23.59
2023-05-01T03:05:29.482Z,23.60
2023-05-01T03:06:29.499Z,23.62
2023-05-01T03:07:29.447Z,23.59
2023-05-01T03:08:29.438Z,23.59
2023-05-01T03:09:29.435Z,23.58
2023-05-01T03:10:29.416Z,23.59
2023-05-01T03:11:29.402Z,23.58
2023-05-01T03:12:29.364Z,23.58
2023-05-01T03:13:29.374Z,23.59
2023-05-01T03:14:29.344Z,23.60
2023-05-01T03:15:29.327Z,23.58
2023-05-01T03:16:29.356Z,23.56
2023-05-01T03:17:29.305Z,23.60
2023-05-01T03:18:29.289Z,23.60
2023-05-01T03:19:29.291Z,23.58
2023-05-01T03:20:29.271Z,23.58
2023-05-01T03:21:29.259Z,23.59
2023-05-01T03:22:29.227Z,23.56
2023-05-01T03:23:29.211Z,23.59
2023-05-01T03:24:29.206Z,23.58
2023-05-01T03:25:29.195Z,23.59
2023-05-01T03:26:29.163Z,23.58
2023-05-01T03:27:29.160Z,23.58
2023-05-01T03:28:29.138Z,23.56
2023-05-01T03:29:29.121Z,23.59
2023-05-01T03:30:29.099Z,23.60
2023-05-01T03:31:29.108Z,23.56
2023-05-01T03:32:29.093Z,23.58
2023-05-01T03:33:29.052Z,23.59
2023-05-01T03:34:29.032Z,23.55
2023-05-01T03:35:29.067Z,23.59
2023-05-01T03:36:29.004Z,23.59
2023-05-01T03:37:28.993Z,23.59
2023-05-01T03:38:28.976Z,23.59
2023-05-01T03:39:28.978Z,23.59
2023-05-01T03:40:28.942Z,23.58
2023-05-01T03:41:28.931Z,23.58
2023-05-01T03:42:28.925Z,23.58
2023-05-01T03:43:28.899Z,23.58
2023-05-01T03:44:28.895Z,23.59
2023-05-01T03:45:28.868Z,23.58
2023-05-01T03:46:28.883Z,23.56
2023-05-01T03:47:28.847Z,23.56
2023-05-01T03:48:28.840Z,23.58
2023-05-01T03:49:28.834Z,23.56
2023-05-01T03:50:28.812Z,23.58
2023-05-01T03:51:28.781Z,23.59
2023-05-01T03:52:28.776Z,23.59
2023-05-01T03:53:28.758Z,23.58
2023-05-01T03:54:28.746Z,23.62
2023-05-01T03:55:28.725Z,23.59
2023-05-01T03:56:28.715Z,23.59
2023-05-01T03:57:28.696Z,23.59
2023-05-01T03:58:28.696Z,23.58
2023-05-01T03:59:28.686Z,23.60
2023-05-01T04:00:28.673Z,23.56
2023-05-01T04:01:28.661Z,23.58
2023-05-01T04:02:28.739Z,23.60
2023-05-01T04:03:28.774Z,23.59
2023-05-01T04:04:28.703Z,23.55
2023-05-01T04:05:28.629Z,23.56
2023-05-01T04:06:28.674Z,23.55
2023-05-01T04:07:28.611Z,23.56
2023-05-01T04:08:28.640Z,23.59
2023-05-01T04:09:28.581Z,23.58
2023-05-01T04:10:28.570Z,23.58
2023-05-01T04:11:28.547Z,23.59
2023-05-01T04:12:28.531Z,23.56
2023-05-01T04:13:28.526Z,23.59
2023-05-01T04:14:28.504Z,23.58
2023-05-01T04:15:28.578Z,23.55
2023-05-01T04:16:28.560Z,23.55
2023-05-01T04:17:28.458Z,23.59
2023-05-01T04:18:28.457Z,23.56
2023-05-01T04:19:28.425Z,23.55
2023-05-01T04:20:28.419Z,23.58
2023-05-01T04:21:28.394Z,23.59
2023-05-01T04:22:28.374Z,23.56
2023-05-01T04:23:28.365Z,23.58
2023-05-01T04:24:28.347Z,23.56
2023-05-01T04:25:28.329Z,23.58
2023-05-01T04:26:28.319Z,23.56
2023-05-01T04:27:28.314Z,23.58
2023-05-01T04:28:28.275Z,23.58
2023-05-01T04:29:28.265Z,23.58
2023-05-01T04:30:28.248Z,23.56
2023-05-01T04:31:28.335Z,23.56
2023-05-01T04:32:28.551Z,23.53
2023-05-01T04:33:28.214Z,23.58
2023-05-01T04:34:28.193Z,23.58
2023-05-01T04:35:28.197Z,23.58
2023-05-01T04:36:28.167Z,23.55
2023-05-01T04:37:28.158Z,23.58
2023-05-01T04:38:28.142Z,23.58
2023-05-01T04:39:28.136Z,23.56
2023-05-01T04:40:28.131Z,23.59
2023-05-01T04:41:28.115Z,23.58
2023-05-01T04:42:28.106Z,23.56
2023-05-01T04:43:28.093Z,23.56
2023-05-01T04:44:28.092Z,23.56
2023-05-01T04:45:28.075Z,23.59
2023-05-01T04:46:28.094Z,23.59
2023-05-01T04:47:28.046Z,23.59
2023-05-01T04:48:28.023Z,23.56
2023-05-01T04:49:28.015Z,23.58
2023-05-01T04:50:28.003Z,23.56
2023-05-01T04:51:27.999Z,23.59
2023-05-01T04:52:27.981Z,23.56
2023-05-01T04:53:27.961Z,23.56
2023-05-01T04:54:27.992Z,23.58
2023-05-01T04:55:30.398Z,23.56
2023-05-01T04:56:27.902Z,23.56
2023-05-01T04:57:27.878Z,23.58
2023-05-01T04:58:27.884Z,23.58
2023-05-01T04:59:27.814Z,23.58
2023-05-01T05:00:27.766Z,23.58
2023-05-01T05:01:27.798Z,23.58
2023-05-01T05:02:27.845Z,23.56
2023-05-01T05:03:27.806Z,23.56
2023-05-01T05:04:27.642Z,23.58
2023-05-01T05:05:27.603Z,23.59
2023-05-01T05:06:27.605Z,23.55
2023-05-01T05:07:27.544Z,23.56
2023-05-01T05:08:27.500Z,23.53
2023-05-01T05:09:27.466Z,23.55
2023-05-01T05:10:27.430Z,23.56
2023-05-01T05:11:27.400Z,23.55
2023-05-01T05:12:27.359Z,23.58
2023-05-01T05:13:27.326Z,23.53
2023-05-01T05:14:27.299Z,23.52
2023-05-01T05:15:27.268Z,23.56
2023-05-01T05:16:27.262Z,23.58
2023-05-01T05:17:27.244Z,23.55
2023-05-01T05:18:27.184Z,23.56
2023-05-01T05:19:27.163Z,23.56
2023-05-01T05:20:27.143Z,23.58
2023-05-01T05:21:27.106Z,23.56
2023-05-01T05:22:27.098Z,23.56
2023-05-01T05:23:27.052Z,23.55
2023-05-01T05:24:27.037Z,23.58
2023-05-01T05:25:27.004Z,23.53
2023-05-01T05:26:26.974Z,23.55
2023-05-01T05:27:26.939Z,23.56
2023-05-01T05:28:26.913Z,23.58
2023-05-01T05:29:26.890Z,23.58
2023-05-01T05:30:26.849Z,23.55
2023-05-01T05:31:26.875Z,23.55
2023-05-01T05:32:26.853Z,23.58
2023-05-01T05:33:26.763Z,23.58
2023-05-01T05:34:26.735Z,23.56
2023-05-01T05:35:26.729Z,23.58
2023-05-01T05:36:26.691Z,23.56
2023-05-01T05:37:26.664Z,23.55
2023-05-01T05:38:26.670Z,23.56
2023-05-01T05:39:26.616Z,23.59
2023-05-01T05:40:26.588Z,23.58
2023-05-01T05:41:26.550Z,23.56
2023-05-01T05:42:26.525Z,23.58
2023-05-01T05:43:28.160Z,23.55
2023-05-01T05:44:26.489Z,23.58
2023-05-01T05:45:26.428Z,23.58
2023-05-01T05:46:26.453Z,23.58
2023-05-01T05:47:26.367Z,23.53
2023-05-01T05:48:26.413Z,23.56
2023-05-01T05:49:26.301Z,23.59
2023-05-01T05:50:26.265Z,23.55
2023-05-01T05:51:26.240Z,23.55
2023-05-01T05:52:26.219Z,23.58
2023-05-01T05:53:26.489Z,23.56
2023-05-01T05:54:26.164Z,23.58
2023-05-01T05:55:26.128Z,23.58
2023-05-01T05:56:26.083Z,23.56
2023-05-01T05:57:26.068Z,23.55
2023-05-01T05:58:26.043Z,23.58
2023-05-01T05:59:25.999Z,23.55
2023-05-01T06:00:25.969Z,23.58
2023-05-01T06:01:25.949Z,23.55
2023-05-01T06:02:26.077Z,23.58
2023-05-01T06:03:25.957Z,23.55
2023-05-01T06:04:25.855Z,23.55
2023-05-01T06:05:25.901Z,23.56
2023-05-01T06:06:25.868Z,23.56
2023-05-01T06:07:25.788Z,23.58
2023-05-01T06:08:25.769Z,23.55
2023-05-01T06:09:25.722Z,23.56
2023-05-01T06:10:25.696Z,23.56
2023-05-01T06:11:25.649Z,23.56
2023-05-01T06:12:25.615Z,23.56
2023-05-01T06:13:25.601Z,23.55
2023-05-01T06:14:25.572Z,23.56
2023-05-01T06:15:25.516Z,23.55
2023-05-01T06:16:25.529Z,23.56
2023-05-01T06:17:25.477Z,23.59
2023-05-01T06:18:25.448Z,23.58
2023-05-01T06:19:25.413Z,23.56
2023-05-01T06:20:25.418Z,23.56
2023-05-01T06:21:25.404Z,23.56
2023-05-01T06:22:25.398Z,23.58
2023-05-01T06:23:25.381Z,23.56
2023-05-01T06:24:25.370Z,23.56
2023-05-01T06:25:25.354Z,23.59
2023-05-01T06:26:25.344Z,23.56
2023-05-01T06:27:25.585Z,23.55
2023-05-01T06:28:25.311Z,23.52
2023-05-01T06:29:25.297Z,23.58
2023-05-01T06:30:25.296Z,23.55
2023-05-01T06:31:25.307Z,23.56
2023-05-01T06:32:25.310Z,23.56
2023-05-01T06:33:25.255Z,23.58
2023-05-01T06:34:25.263Z,23.56
2023-05-01T06:35:25.244Z,23.53
2023-05-01T06:36:25.225Z,23.56
2023-05-01T06:37:25.229Z,23.58
2023-05-01T06:38:26.933Z,23.55
2023-05-01T06:39:25.203Z,23.55
2023-05-01T06:40:25.188Z,23.55
2023-05-01T06:41:25.184Z,23.58
2023-05-01T06:42:25.192Z,23.53
2023-05-01T06:43:25.179Z,23.56
2023-05-01T06:44:25.178Z,23.56
2023-05-01T06:45:25.170Z,23.56
2023-05-01T06:46:25.187Z,23.56
2023-05-01T06:47:25.295Z,23.55
2023-05-01T06:48:25.154Z,23.59
2023-05-01T06:49:25.144Z,23.58
2023-05-01T06:50:25.137Z,23.59
2023-05-01T06:51:25.124Z,23.53
2023-05-01T06:52:25.124Z,23.56
2023-05-01T06:53:25.115Z,23.56
2023-05-01T06:54:25.115Z,23.58
2023-05-01T06:55:25.102Z,23.58
2023-05-01T06:56:25.101Z,23.58
2023-05-01T06:57:25.098Z,23.58
2023-05-01T06:58:25.143Z,23.58
2023-05-01T06:59:25.073Z,23.58
2023-05-01T07:00:25.084Z,23.56
2023-05-01T07:01:25.165Z,23.56
2023-05-01T07:02:25.126Z,23.58
2023-05-01T07:03:25.171Z,23.58
2023-05-01T07:04:25.078Z,23.56
2023-05-01T07:05:25.055Z,23.58
2023-05-01T07:06:25.086Z,23.56
2023-05-01T07:07:25.058Z,23.55
2023-05-01T07:08:25.024Z,23.56
2023-05-01T07:09:25.022Z,23.56
2023-05-01T07:10:25.006Z,23.56
2023-05-01T07:11:24.985Z,23.56
2023-05-01T07:12:24.996Z,23.53
2023-05-01T07:13:24.994Z,23.55
2023-05-01T07:14:24.997Z,23.56
2023-05-01T07:15:24.989Z,23.56
2023-05-01T07:16:25.032Z,23.55
2023-05-01T07:17:25.051Z,23.59
2023-05-01T07:18:24.970Z,23.58
2023-05-01T07:19:24.956Z,23.56
2023-05-01T07:20:24.955Z,23.59
2023-05-01T07:21:24.940Z,23.56
2023-05-01T07:22:24.932Z,23.56
2023-05-01T07:23:24.958Z,23.58
2023-05-01T07:24:24.913Z,23.59
2023-05-01T07:25:24.908Z,23.56
2023-05-01T07:26:24.901Z,23.59
2023-05-01T07:27:24.888Z,23.55
2023-05-01T07:28:24.881Z,23.56
2023-05-01T07:29:24.877Z,23.55
2023-05-01T07:30:24.864Z,23.56
2023-05-01T07:31:24.920Z,23.59
2023-05-01T07:32:24.842Z,23.58
2023-05-01T07:33:24.939Z,23.56
2023-05-01T07:34:24.825Z,23.58
2023-05-01T07:35:24.823Z,23.56
2023-05-01T07:36:24.804Z,23.58
2023-05-01T07:37:24.798Z,23.59
2023-05-01T07:38:24.788Z,23.59
2023-05-01T07:39:24.789Z,23.58
2023-05-01T07:40:24.844Z,23.56
2023-05-01T07:41:24.773Z,23.58
2023-05-01T07:42:24.774Z,23.56
2023-05-01T07:43:24.748Z,23.56
2023-05-01T07:44:24.731Z,23.58
2023-05-01T07:45:24.737Z,23.58
2023-05-01T07:46:24.733Z,23.56
2023-05-01T07:47:24.775Z,23.58
2023-05-01T07:48:24.734Z,23.58
2023-05-01T07:49:24.684Z,23.56
2023-05-01T07:50:24.709Z,23.59
2023-05-01T07:51:24.685Z,23.58
2023-05-01T07:52:24.672Z,23.58
2023-05-01T07:53:24.661Z,23.56
2023-05-01T07:54:24.648Z,23.56
2023-05-01T07:55:24.668Z,23.58
2023-05-01T07:56:24.631Z,23.55
2023-05-01T07:57:24.625Z,23.58
2023-05-01T07:58:24.619Z,23.55
2023-05-01T07:59:24.605Z,23.58
2023-05-01T08:00:24.637Z,23.59
2023-05-01T08:01:24.604Z,23.58
2023-05-01T08:02:24.661Z,23.58
2023-05-01T08:03:24.648Z,23.58
2023-05-01T08:04:24.626Z,23.58
2023-05-01T08:05:24.548Z,23.62
2023-05-01T08:06:24.565Z,23.59
2023-05-01T08:07:24.522Z,23.58
2023-05-01T08:08:24.499Z,23.58
2023-05-01T08:09:24.489Z,23.58
2023-05-01T08:10:24.515Z,23.58
2023-05-01T08:11:24.517Z,23.59
2023-05-01T08:12:24.490Z,23.59
2023-05-01T08:13:24.457Z,23.58
2023-05-01T08:14:24.446Z,23.59
2023-05-01T08:15:24.442Z,23.60
2023-05-01T08:16:24.445Z,23.58
2023-05-01T08:17:24.490Z,23.56
2023-05-01T08:18:24.405Z,23.58
2023-05-01T08:19:24.422Z,23.59
2023-05-01T08:20:24.395Z,23.56
2023-05-01T08:21:24.388Z,23.56
2023-05-01T08:22:24.403Z,23.58
2023-05-01T08:23:24.368Z,23.58
2023-05-01T08:24:24.350Z,23.56
2023-05-01T08:25:24.333Z,23.56
2023-05-01T08:26:24.349Z,23.56
2023-05-01T08:27:24.329Z,23.56
2023-05-01T08:28:24.314Z,23.56
2023-05-01T08:29:24.309Z,23.58
2023-05-01T08:30:24.292Z,23.56
2023-05-01T08:31:24.308Z,23.60
2023-05-01T08:32:24.336Z,23.59
2023-05-01T08:33:24.257Z,23.60
2023-05-01T08:34:24.254Z,23.60
2023-05-01T08:35:24.250Z,23.58
2023-05-01T08:36:24.235Z,23.59
2023-05-01T08:37:24.225Z,23.58
2023-05-01T08:38:24.219Z,23.60
2023-05-01T08:39:24.197Z,23.59
2023-05-01T08:40:24.192Z,23.59
2023-05-01T08:41:24.180Z,23.60
2023-05-01T08:42:24.167Z,23.59
2023-05-01T08:43:24.206Z,23.59
2023-05-01T08:44:24.156Z,23.59
2023-05-01T08:45:24.163Z,23.59
2023-05-01T08:46:24.178Z,23.59
2023-05-01T08:47:24.152Z,23.59
2023-05-01T08:48:24.124Z,23.59
2023-05-01T08:49:24.115Z,23.56
2023-05-01T08:50:24.111Z,23.60
2023-05-01T08:51:24.143Z,23.58
2023-05-01T08:52:24.106Z,23.59
2023-05-01T08:53:24.111Z,23.59
2023-05-01T08:54:24.097Z,23.58
2023-05-01T08:55:24.076Z,23.60
2023-05-01T08:56:24.076Z,23.60
2023-05-01T08:57:24.061Z,23.59
2023-05-01T08:58:24.051Z,23.60
2023-05-01T08:59:24.031Z,23.62
2023-05-01T09:00:24.022Z,23.59
2023-05-01T09:01:24.017Z,23.60
2023-05-01T09:02:24.030Z,23.60
2023-05-01T09:03:24.043Z,23.59
2023-05-01T09:04:24.124Z,23.59
2023-05-01T09:05:23.973Z,23.60
2023-05-01T09:06:24.687Z,23.60
2023-05-01T09:07:23.976Z,23.58
2023-05-01T09:08:23.934Z,23.59
2023-05-01T09:09:23.928Z,23.60
2023-05-01T09:10:23.919Z,23.60
2023-05-01T09:11:23.899Z,23.59
2023-05-01T09:12:23.911Z,23.59
2023-05-01T09:13:23.886Z,23.60
2023-05-01T09:14:23.867Z,23.60
2023-05-01T09:15:23.847Z,23.60
2023-05-01T09:16:23.892Z,23.60
2023-05-01T09:17:23.885Z,23.63
2023-05-01T09:18:23.819Z,23.60
2023-05-01T09:19:23.892Z,23.62
2023-05-01T09:20:23.780Z,23.60
2023-05-01T09:21:23.768Z,23.62
2023-05-01T09:22:23.760Z,23.59
2023-05-01T09:23:23.765Z,23.60
2023-05-01T09:24:23.737Z,23.62
2023-05-01T09:25:23.733Z,23.62
2023-05-01T09:26:23.740Z,23.60
2023-05-01T09:27:23.689Z,23.62
2023-05-01T09:28:23.696Z,23.62
2023-05-01T09:29:23.666Z,23.60
2023-05-01T09:30:23.652Z,23.60
2023-05-01T09:31:23.762Z,23.59
2023-05-01T09:32:23.753Z,23.62
2023-05-01T09:33:23.640Z,23.59
2023-05-01T09:34:23.581Z,23.63
2023-05-01T09:35:23.567Z,23.62
2023-05-01T09:36:23.562Z,23.62
2023-05-01T09:37:23.537Z,23.62
2023-05-01T09:38:23.578Z,23.63
2023-05-01T09:39:23.516Z,23.62
2023-05-01T09:40:23.491Z,23.62
2023-05-01T09:41:23.471Z,23.60
2023-05-01T09:42:23.480Z,23.62
2023-05-01T09:43:23.452Z,23.62
2023-05-01T09:44:23.417Z,23.60
2023-05-01T09:45:23.405Z,23.62
2023-05-01T09:46:23.428Z,23.62
2023-05-01T09:47:23.401Z,23.60
2023-05-01T09:48:23.350Z,23.60
2023-05-01T09:49:23.356Z,23.60
2023-05-01T09:50:23.294Z,23.63
2023-05-01T09:51:23.280Z,23.62
2023-05-01T09:52:23.258Z,23.62
2023-05-01T09:53:23.247Z,23.62
2023-05-01T09:54:23.223Z,23.63
2023-05-01T09:55:24.797Z,23.62
2023-05-01T09:56:23.253Z,23.66
2023-05-01T09:57:23.240Z,23.65
2023-05-01T09:58:23.229Z,23.63
2023-05-01T09:59:23.203Z,23.63
2023-05-01T10:00:23.205Z,23.62
2023-05-01T10:01:23.203Z,23.63
2023-05-01T10:02:23.208Z,23.65
2023-05-01T10:03:23.213Z,23.65
2023-05-01T10:04:23.100Z,23.62
2023-05-01T10:05:23.094Z,23.65
2023-05-01T10:06:23.078Z,23.63
2023-05-01T10:07:23.051Z,23.62
2023-05-01T10:08:23.046Z,23.62
2023-05-01T10:10:23.004Z,23.62
2023-05-01T10:11:22.993Z,23.62
2023-05-01T10:12:22.979Z,23.63
2023-05-01T10:13:22.946Z,23.60
2023-05-01T10:14:22.934Z,23.66
2023-05-01T10:15:25.315Z,23.63
2023-05-01T10:16:22.901Z,23.63
2023-05-01T10:17:22.953Z,23.62
2023-05-01T10:18:22.868Z,23.62
2023-05-01T10:19:22.773Z,23.63
2023-05-01T10:20:22.771Z,23.66
2023-05-01T10:21:22.712Z,23.62
2023-05-01T10:22:22.703Z,23.63
2023-05-01T10:23:22.677Z,23.65
2023-05-01T10:24:22.615Z,23.63
2023-05-01T10:25:22.589Z,23.63
2023-05-01T10:26:22.572Z,23.63
2023-05-01T10:27:22.527Z,23.65
2023-05-01T10:28:22.506Z,23.66
2023-05-01T10:29:22.515Z,23.66
2023-05-01T10:30:22.456Z,23.63
2023-05-01T10:31:22.484Z,23.62
2023-05-01T10:32:22.379Z,23.65
2023-05-01T10:33:22.421Z,23.63
2023-05-01T10:34:22.326Z,23.65
2023-05-01T10:35:22.318Z,23.63
2023-05-01T10:36:22.293Z,23.62
2023-05-01T10:37:22.231Z,23.65
2023-05-01T10:38:22.220Z,23.65
2023-05-01T10:39:22.187Z,23.65
2023-05-01T10:40:22.146Z,23.65
2023-05-01T10:41:22.115Z,23.63
2023-05-01T10:42:22.087Z,23.62
2023-05-01T10:43:22.054Z,23.62
2023-05-01T10:44:22.024Z,23.63
2023-05-01T10:45:22.001Z,23.63
2023-05-01T10:46:22.046Z,23.63
2023-05-01T10:47:22.004Z,23.66
2023-05-01T10:48:21.927Z,23.62
2023-05-01T10:49:21.890Z,23.66
2023-05-01T10:50:21.847Z,23.63
2023-05-01T10:51:22.776Z,23.63
2023-05-01T10:52:21.801Z,23.62
2023-05-01T10:53:21.755Z,23.63
2023-05-01T10:54:21.728Z,23.65
2023-05-01T10:55:21.786Z,23.66
2023-05-01T10:56:21.645Z,23.65
2023-05-01T10:57:21.616Z,23.65
2023-05-01T10:58:21.589Z,23.62
2023-05-01T10:59:21.556Z,23.66
2023-05-01T11:00:21.518Z,23.63
2023-05-01T11:01:21.480Z,23.65
2023-05-01T11:02:21.653Z,23.65
2023-05-01T11:03:21.436Z,23.63
2023-05-01T11:04:21.376Z,23.65
2023-05-01T11:05:32.184Z,23.65
2023-05-01T11:06:22.363Z,23.65
2023-05-01T11:07:21.401Z,23.63
2023-05-01T11:08:21.228Z,23.63
2023-05-01T11:09:21.186Z,23.66
2023-05-01T11:10:21.149Z,23.62
2023-05-01T11:11:21.124Z,23.65
2023-05-01T11:12:21.081Z,23.65
2023-05-01T11:13:21.052Z,23.63
2023-05-01T11:14:21.020Z,23.63
2023-05-01T11:15:20.979Z,23.65
2023-05-01T11:16:20.989Z,23.65
2023-05-01T11:17:20.931Z,23.66
2023-05-01T11:18:20.893Z,23.65
2023-05-01T11:19:20.850Z,23.62
2023-05-01T11:20:20.806Z,23.65
2023-05-01T11:21:20.781Z,23.63
2023-05-01T11:22:20.745Z,23.66
2023-05-01T11:23:20.731Z,23.65
2023-05-01T11:24:20.690Z,23.66
2023-05-01T11:25:20.672Z,23.65
2023-05-01T11:26:20.617Z,23.65
2023-05-01T11:27:20.576Z,23.66
2023-05-01T11:28:20.551Z,23.65
2023-05-01T11:29:20.538Z,23.63
2023-05-01T11:30:20.489Z,23.65
2023-05-01T11:31:20.482Z,23.66
2023-05-01T11:32:20.553Z,23.66
2023-05-01T11:33:20.464Z,23.63
2023-05-01T11:34:20.353Z,23.65
2023-05-01T11:35:20.311Z,23.66
2023-05-01T11:36:20.286Z,23.65
2023-05-01T11:37:20.251Z,23.65
2023-05-01T11:38:20.209Z,23.65
2023-05-01T11:39:20.203Z,23.66
2023-05-01T11:40:20.168Z,23.65
2023-05-01T11:41:20.348Z,23.65
2023-05-01T11:42:20.129Z,23.63
2023-05-01T11:43:20.109Z,23.62
2023-05-01T11:44:20.086Z,23.65
2023-05-01T11:45:20.059Z,23.65
2023-05-01T11:46:20.114Z,23.62
2023-05-01T11:47:20.087Z,23.66
2023-05-01T11:48:20.059Z,23.63
2023-05-01T11:49:20.008Z,23.63
2023-05-01T11:50:20.003Z,23.67
2023-05-01T11:51:19.986Z,23.63
2023-05-01T11:52:19.961Z,23.65
2023-05-01T11:53:19.951Z,23.65
2023-05-01T11:54:19.937Z,23.66
2023-05-01T11:55:19.920Z,23.66
2023-05-01T11:56:26.702Z,23.63
2023-05-01T11:57:20.866Z,23.65
2023-05-01T11:58:19.837Z,23.66
2023-05-01T11:59:19.787Z,23.65
2023-05-01T12:00:19.757Z,23.65
2023-05-01T12:01:19.747Z,23.65
2023-05-01T12:02:19.775Z,23.63
2023-05-01T12:03:19.821Z,23.65
2023-05-01T12:04:19.724Z,23.63
2023-05-01T12:05:19.594Z,23.63
2023-05-01T12:06:19.599Z,23.63
2023-05-01T12:07:19.552Z,23.66
2023-05-01T12:08:19.514Z,23.65
2023-05-01T12:09:19.462Z,23.65
2023-05-01T12:10:19.429Z,23.65
2023-05-01T12:11:19.397Z,23.66
2023-05-01T12:12:19.356Z,23.65
2023-05-01T12:13:19.330Z,23.65
2023-05-01T12:14:19.304Z,23.63
2023-05-01T12:15:19.262Z,23.65
2023-05-01T12:16:19.282Z,23.66
2023-05-01T12:17:19.268Z,23.65
2023-05-01T12:18:19.211Z,23.67
2023-05-01T12:19:19.718Z,23.62
2023-05-01T12:20:19.090Z,23.63
2023-05-01T12:21:19.062Z,23.65
2023-05-01T12:22:19.019Z,23.65
2023-05-01T12:23:19.000Z,23.63
2023-05-01T12:24:18.967Z,23.65
2023-05-01T12:25:18.918Z,23.62
2023-05-01T12:26:18.900Z,23.65
2023-05-01T12:27:18.860Z,23.63
2023-05-01T12:28:18.828Z,23.65
2023-05-01T12:29:18.787Z,23.66
2023-05-01T12:30:18.763Z,23.63
2023-05-01T12:31:18.767Z,23.65
2023-05-01T12:32:18.732Z,23.65
2023-05-01T12:33:18.891Z,23.62
2023-05-01T12:34:18.698Z,23.63
2023-05-01T12:35:18.688Z,23.63
2023-05-01T12:36:18.678Z,23.63
2023-05-01T12:37:18.661Z,23.62
2023-05-01T12:38:18.656Z,23.62
2023-05-01T12:39:18.683Z,23.65
2023-05-01T12:40:18.609Z,23.65
2023-05-01T12:41:18.579Z,23.63
2023-05-01T12:42:18.566Z,23.63
2023-05-01T12:43:18.540Z,23.63
2023-05-01T12:44:18.533Z,23.62
2023-05-01T12:45:18.514Z,23.63
2023-05-01T12:46:18.541Z,23.63
2023-05-01T12:47:18.469Z,23.63
2023-05-01T12:48:18.478Z,23.65
2023-05-01T12:49:18.437Z,23.65
2023-05-01T12:50:18.430Z,23.62
2023-05-01T12:51:18.412Z,23.63
2023-05-01T12:52:18.409Z,23.62
2023-05-01T12:53:18.379Z,23.62